sensor_id;sensor_type;location;lat;lon;timestamp;P1;durP1;ratioP1;P2;durP2;ratioP2
4021;SDS011;2025;48.260;16.432;2023-03-23T00:01:57;8.60;;;4.50;;
4021;SDS011;2025;48.260;16.432;2023-03-23T00:04:26;9.68;;;5.28;;
4021;SDS011;2025;48.260;16.432;2023-03-23T00:06:55;8.93;;;5.22;;
4021;SDS011;2025;48.260;16.432;2023-03-23T00:09:22;11.68;;;4.88;;
4021;SDS011;2025;48.260;16.432;2023-03-23T00:11:49;9.52;;;4.50;;
4021;SDS011;2025;48.260;16.432;2023-03-23T00:14:22;9.18;;;5.18;;
4021;SDS011;2025;48.260;16.432;2023-03-23T00:16:50;9.63;;;4.15;;
4021;SDS011;2025;48.260;16.432;2023-03-23T00:19:17;11.85;;;5.60;;
4021;SDS011;2025;48.260;16.432;2023-03-23T00:21:46;9.70;;;5.63;;
4021;SDS011;2025;48.260;16.432;2023-03-23T00:24:18;10.77;;;6.35;;
4021;SDS011;2025;48.260;16.432;2023-03-23T00:26:46;10.13;;;4.20;;
4021;SDS011;2025;48.260;16.432;2023-03-23T00:29:17;11.55;;;5.63;;
4021;SDS011;2025;48.260;16.432;2023-03-23T00:31:46;9.52;;;4.25;;
4021;SDS011;2025;48.260;16.432;2023-03-23T00:34:14;10.93;;;5.40;;
4021;SDS011;2025;48.260;16.432;2023-03-23T00:36:44;11.63;;;5.68;;
4021;SDS011;2025;48.260;16.432;2023-03-23T00:39:13;12.40;;;5.43;;
4021;SDS011;2025;48.260;16.432;2023-03-23T00:41:41;9.10;;;4.90;;
4021;SDS011;2025;48.260;16.432;2023-03-23T00:44:08;10.77;;;4.55;;
4021;SDS011;2025;48.260;16.432;2023-03-23T00:46:35;10.95;;;4.50;;
4021;SDS011;2025;48.260;16.432;2023-03-23T00:49:09;10.60;;;5.30;;
4021;SDS011;2025;48.260;16.432;2023-03-23T00:51:37;11.50;;;5.50;;
4021;SDS011;2025;48.260;16.432;2023-03-23T00:54:04;11.43;;;5.15;;
4021;SDS011;2025;48.260;16.432;2023-03-23T00:56:33;10.45;;;5.63;;
4021;SDS011;2025;48.260;16.432;2023-03-23T00:59:00;9.65;;;5.50;;
4021;SDS011;2025;48.260;16.432;2023-03-23T01:01:27;9.98;;;5.57;;
4021;SDS011;2025;48.260;16.432;2023-03-23T01:03:54;9.90;;;4.95;;
4021;SDS011;2025;48.260;16.432;2023-03-23T01:06:26;10.35;;;5.40;;
4021;SDS011;2025;48.260;16.432;2023-03-23T01:08:53;10.57;;;5.03;;
4021;SDS011;2025;48.260;16.432;2023-03-23T01:11:21;12.35;;;6.25;;
4021;SDS011;2025;48.260;16.432;2023-03-23T01:13:50;12.25;;;6.85;;
4021;SDS011;2025;48.260;16.432;2023-03-23T01:16:17;11.48;;;5.68;;
4021;SDS011;2025;48.260;16.432;2023-03-23T01:18:44;10.35;;;5.65;;
4021;SDS011;2025;48.260;16.432;2023-03-23T01:21:12;9.85;;;5.55;;
4021;SDS011;2025;48.260;16.432;2023-03-23T01:23:41;11.20;;;6.38;;
4021;SDS011;2025;48.260;16.432;2023-03-23T01:26:09;13.52;;;5.50;;
4021;SDS011;2025;48.260;16.432;2023-03-23T01:28:38;10.10;;;6.18;;
4021;SDS011;2025;48.260;16.432;2023-03-23T01:31:07;10.30;;;5.43;;
4021;SDS011;2025;48.260;16.432;2023-03-23T01:33:37;9.60;;;5.93;;
4021;SDS011;2025;48.260;16.432;2023-03-23T01:36:05;9.40;;;4.53;;
4021;SDS011;2025;48.260;16.432;2023-03-23T01:38:34;11.23;;;5.82;;
4021;SDS011;2025;48.260;16.432;2023-03-23T01:41:02;13.35;;;6.22;;
4021;SDS011;2025;48.260;16.432;2023-03-23T01:43:30;11.38;;;5.15;;
4021;SDS011;2025;48.260;16.432;2023-03-23T01:45:57;9.52;;;5.07;;
4021;SDS011;2025;48.260;16.432;2023-03-23T01:48:26;13.13;;;6.13;;
4021;SDS011;2025;48.260;16.432;2023-03-23T01:50:56;11.52;;;5.53;;
4021;SDS011;2025;48.260;16.432;2023-03-23T01:53:29;13.13;;;5.93;;
4021;SDS011;2025;48.260;16.432;2023-03-23T01:56:01;10.25;;;5.10;;
4021;SDS011;2025;48.260;16.432;2023-03-23T01:58:30;10.95;;;6.70;;
4021;SDS011;2025;48.260;16.432;2023-03-23T02:01:00;11.15;;;5.72;;
4021;SDS011;2025;48.260;16.432;2023-03-23T02:03:31;11.23;;;6.40;;
4021;SDS011;2025;48.260;16.432;2023-03-23T02:06:01;13.80;;;6.00;;
4021;SDS011;2025;48.260;16.432;2023-03-23T02:08:28;10.88;;;5.60;;
4021;SDS011;2025;48.260;16.432;2023-03-23T02:10:57;13.68;;;6.45;;
4021;SDS011;2025;48.260;16.432;2023-03-23T02:13:25;13.15;;;6.28;;
4021;SDS011;2025;48.260;16.432;2023-03-23T02:15:55;10.77;;;6.25;;
4021;SDS011;2025;48.260;16.432;2023-03-23T02:18:32;11.65;;;5.85;;
4021;SDS011;2025;48.260;16.432;2023-03-23T02:26:58;10.93;;;5.47;;
4021;SDS011;2025;48.260;16.432;2023-03-23T02:29:35;14.30;;;6.30;;
4021;SDS011;2025;48.260;16.432;2023-03-23T02:32:21;12.85;;;5.55;;
4021;SDS011;2025;48.260;16.432;2023-03-23T02:35:06;11.68;;;5.68;;
4021;SDS011;2025;48.260;16.432;2023-03-23T02:37:39;11.48;;;5.97;;
4021;SDS011;2025;48.260;16.432;2023-03-23T02:40:13;10.00;;;5.70;;
4021;SDS011;2025;48.260;16.432;2023-03-23T02:42:46;11.13;;;5.65;;
4021;SDS011;2025;48.260;16.432;2023-03-23T02:45:16;12.73;;;6.43;;
4021;SDS011;2025;48.260;16.432;2023-03-23T02:47:45;12.15;;;6.55;;
4021;SDS011;2025;48.260;16.432;2023-03-23T02:50:16;13.57;;;5.90;;
4021;SDS011;2025;48.260;16.432;2023-03-23T02:52:45;12.63;;;6.07;;
4021;SDS011;2025;48.260;16.432;2023-03-23T02:55:14;11.93;;;6.63;;
4021;SDS011;2025;48.260;16.432;2023-03-23T02:57:42;12.07;;;6.35;;
4021;SDS011;2025;48.260;16.432;2023-03-23T03:00:12;12.93;;;7.55;;
4021;SDS011;2025;48.260;16.432;2023-03-23T03:02:44;10.48;;;5.90;;
4021;SDS011;2025;48.260;16.432;2023-03-23T03:05:15;10.63;;;5.72;;
4021;SDS011;2025;48.260;16.432;2023-03-23T03:07:58;10.07;;;6.07;;
4021;SDS011;2025;48.260;16.432;2023-03-23T03:10:32;11.30;;;5.97;;
4021;SDS011;2025;48.260;16.432;2023-03-23T03:13:05;10.50;;;5.85;;
4021;SDS011;2025;48.260;16.432;2023-03-23T03:15:39;13.30;;;5.85;;
4021;SDS011;2025;48.260;16.432;2023-03-23T03:18:12;9.75;;;5.72;;
4021;SDS011;2025;48.260;16.432;2023-03-23T03:20:45;9.65;;;5.63;;
4021;SDS011;2025;48.260;16.432;2023-03-23T03:23:14;11.13;;;5.85;;
4021;SDS011;2025;48.260;16.432;2023-03-23T03:25:43;9.52;;;5.00;;
4021;SDS011;2025;48.260;16.432;2023-03-23T03:30:46;8.57;;;5.45;;
4021;SDS011;2025;48.260;16.432;2023-03-23T03:33:16;10.00;;;4.55;;
4021;SDS011;2025;48.260;16.432;2023-03-23T03:35:47;10.27;;;5.15;;
4021;SDS011;2025;48.260;16.432;2023-03-23T03:38:15;11.70;;;6.10;;
4021;SDS011;2025;48.260;16.432;2023-03-23T03:40:42;10.35;;;5.70;;
4021;SDS011;2025;48.260;16.432;2023-03-23T03:43:09;10.25;;;5.63;;
4021;SDS011;2025;48.260;16.432;2023-03-23T03:45:36;9.57;;;5.35;;
4021;SDS011;2025;48.260;16.432;2023-03-23T03:48:03;11.60;;;5.63;;
4021;SDS011;2025;48.260;16.432;2023-03-23T03:50:30;11.35;;;6.03;;
4021;SDS011;2025;48.260;16.432;2023-03-23T03:52:58;11.32;;;5.60;;
4021;SDS011;2025;48.260;16.432;2023-03-23T03:55:25;9.43;;;5.35;;
4021;SDS011;2025;48.260;16.432;2023-03-23T03:57:53;9.63;;;5.22;;
4021;SDS011;2025;48.260;16.432;2023-03-23T04:00:21;12.57;;;6.10;;
4021;SDS011;2025;48.260;16.432;2023-03-23T04:02:49;9.32;;;5.68;;
4021;SDS011;2025;48.260;16.432;2023-03-23T04:05:19;10.57;;;5.72;;
4021;SDS011;2025;48.260;16.432;2023-03-23T04:07:46;9.45;;;5.72;;
4021;SDS011;2025;48.260;16.432;2023-03-23T04:10:16;12.27;;;5.10;;
4021;SDS011;2025;48.260;16.432;2023-03-23T04:12:44;12.10;;;6.65;;
4021;SDS011;2025;48.260;16.432;2023-03-23T04:15:11;12.23;;;6.20;;
4021;SDS011;2025;48.260;16.432;2023-03-23T04:17:38;13.05;;;6.47;;
4021;SDS011;2025;48.260;16.432;2023-03-23T04:20:06;13.20;;;5.75;;
4021;SDS011;2025;48.260;16.432;2023-03-23T04:22:40;9.70;;;5.82;;
4021;SDS011;2025;48.260;16.432;2023-03-23T04:25:09;15.48;;;6.47;;
4021;SDS011;2025;48.260;16.432;2023-03-23T04:27:38;10.25;;;5.95;;
4021;SDS011;2025;48.260;16.432;2023-03-23T04:30:08;11.05;;;6.43;;
4021;SDS011;2025;48.260;16.432;2023-03-23T04:32:37;9.98;;;5.85;;
4021;SDS011;2025;48.260;16.432;2023-03-23T04:35:06;8.55;;;5.68;;
4021;SDS011;2025;48.260;16.432;2023-03-23T04:37:33;11.68;;;6.18;;
4021;SDS011;2025;48.260;16.432;2023-03-23T04:40:01;10.77;;;5.28;;
4021;SDS011;2025;48.260;16.432;2023-03-23T04:42:36;12.45;;;6.18;;
4021;SDS011;2025;48.260;16.432;2023-03-23T04:45:05;13.50;;;6.22;;
4021;SDS011;2025;48.260;16.432;2023-03-23T04:47:35;10.98;;;6.47;;
4021;SDS011;2025;48.260;16.432;2023-03-23T04:50:06;11.63;;;6.32;;
4021;SDS011;2025;48.260;16.432;2023-03-23T04:52:35;11.90;;;7.20;;
4021;SDS011;2025;48.260;16.432;2023-03-23T04:55:05;14.18;;;6.85;;
4021;SDS011;2025;48.260;16.432;2023-03-23T04:57:34;14.15;;;7.85;;
4021;SDS011;2025;48.260;16.432;2023-03-23T05:00:02;13.50;;;7.70;;
4021;SDS011;2025;48.260;16.432;2023-03-23T05:02:35;12.90;;;6.28;;
4021;SDS011;2025;48.260;16.432;2023-03-23T05:05:04;11.32;;;5.78;;
4021;SDS011;2025;48.260;16.432;2023-03-23T05:07:32;12.73;;;6.38;;
4021;SDS011;2025;48.260;16.432;2023-03-23T05:09:59;13.82;;;7.50;;
4021;SDS011;2025;48.260;16.432;2023-03-23T05:12:25;13.43;;;7.03;;
4021;SDS011;2025;48.260;16.432;2023-03-23T05:14:53;12.18;;;7.35;;
4021;SDS011;2025;48.260;16.432;2023-03-23T05:17:20;16.20;;;7.43;;
4021;SDS011;2025;48.260;16.432;2023-03-23T05:19:50;14.90;;;7.10;;
4021;SDS011;2025;48.260;16.432;2023-03-23T05:22:18;13.27;;;8.02;;
4021;SDS011;2025;48.260;16.432;2023-03-23T05:24:47;13.77;;;7.43;;
4021;SDS011;2025;48.260;16.432;2023-03-23T05:27:16;13.02;;;7.82;;
4021;SDS011;2025;48.260;16.432;2023-03-23T05:29:44;13.18;;;7.10;;
4021;SDS011;2025;48.260;16.432;2023-03-23T05:32:13;14.27;;;7.72;;
4021;SDS011;2025;48.260;16.432;2023-03-23T05:34:41;14.27;;;7.57;;
4021;SDS011;2025;48.260;16.432;2023-03-23T05:37:10;15.85;;;6.70;;
4021;SDS011;2025;48.260;16.432;2023-03-23T05:39:38;13.50;;;9.57;;
4021;SDS011;2025;48.260;16.432;2023-03-23T05:42:06;13.82;;;6.82;;
4021;SDS011;2025;48.260;16.432;2023-03-23T05:44:33;14.05;;;7.90;;
4021;SDS011;2025;48.260;16.432;2023-03-23T05:47:01;17.55;;;8.18;;
4021;SDS011;2025;48.260;16.432;2023-03-23T05:49:28;15.27;;;8.77;;
4021;SDS011;2025;48.260;16.432;2023-03-23T05:51:55;17.63;;;9.75;;
4021;SDS011;2025;48.260;16.432;2023-03-23T05:54:23;17.17;;;7.97;;
4021;SDS011;2025;48.260;16.432;2023-03-23T05:56:50;14.50;;;8.00;;
4021;SDS011;2025;48.260;16.432;2023-03-23T05:59:17;15.27;;;8.32;;
4021;SDS011;2025;48.260;16.432;2023-03-23T06:01:44;16.13;;;8.90;;
4021;SDS011;2025;48.260;16.432;2023-03-23T06:04:11;16.67;;;8.63;;
4021;SDS011;2025;48.260;16.432;2023-03-23T06:06:38;17.70;;;9.68;;
4021;SDS011;2025;48.260;16.432;2023-03-23T06:09:06;16.08;;;9.65;;
4021;SDS011;2025;48.260;16.432;2023-03-23T06:11:34;18.92;;;9.73;;
4021;SDS011;2025;48.260;16.432;2023-03-23T06:14:01;19.95;;;9.45;;
4021;SDS011;2025;48.260;16.432;2023-03-23T06:16:28;16.30;;;9.00;;
4021;SDS011;2025;48.260;16.432;2023-03-23T06:18:56;15.63;;;7.95;;
4021;SDS011;2025;48.260;16.432;2023-03-23T06:21:25;17.33;;;8.55;;
4021;SDS011;2025;48.260;16.432;2023-03-23T06:23:53;14.55;;;8.75;;
4021;SDS011;2025;48.260;16.432;2023-03-23T06:26:21;13.02;;;6.97;;
4021;SDS011;2025;48.260;16.432;2023-03-23T06:28:53;14.55;;;6.88;;
4021;SDS011;2025;48.260;16.432;2023-03-23T06:31:20;12.82;;;6.63;;
4021;SDS011;2025;48.260;16.432;2023-03-23T06:33:48;14.45;;;7.10;;
4021;SDS011;2025;48.260;16.432;2023-03-23T06:36:15;11.25;;;7.50;;
4021;SDS011;2025;48.260;16.432;2023-03-23T06:38:42;12.32;;;6.47;;
4021;SDS011;2025;48.260;16.432;2023-03-23T06:41:10;14.75;;;6.30;;
4021;SDS011;2025;48.260;16.432;2023-03-23T06:43:37;13.45;;;6.85;;
4021;SDS011;2025;48.260;16.432;2023-03-23T06:46:06;12.40;;;6.82;;
4021;SDS011;2025;48.260;16.432;2023-03-23T06:48:33;13.57;;;8.25;;
4021;SDS011;2025;48.260;16.432;2023-03-23T06:51:00;13.20;;;6.80;;
4021;SDS011;2025;48.260;16.432;2023-03-23T06:53:27;13.13;;;7.03;;
4021;SDS011;2025;48.260;16.432;2023-03-23T06:55:55;13.77;;;6.88;;
4021;SDS011;2025;48.260;16.432;2023-03-23T06:58:22;11.82;;;7.03;;
4021;SDS011;2025;48.260;16.432;2023-03-23T07:00:52;16.48;;;7.15;;
4021;SDS011;2025;48.260;16.432;2023-03-23T07:03:23;12.65;;;8.27;;
4021;SDS011;2025;48.260;16.432;2023-03-23T07:05:50;11.00;;;5.43;;
4021;SDS011;2025;48.260;16.432;2023-03-23T07:08:17;9.65;;;5.88;;
4021;SDS011;2025;48.260;16.432;2023-03-23T07:10:44;14.32;;;7.80;;
4021;SDS011;2025;48.260;16.432;2023-03-23T07:13:11;11.82;;;5.97;;
4021;SDS011;2025;48.260;16.432;2023-03-23T07:15:38;12.52;;;6.93;;
4021;SDS011;2025;48.260;16.432;2023-03-23T07:18:06;12.52;;;5.80;;
4021;SDS011;2025;48.260;16.432;2023-03-23T07:20:34;12.18;;;6.05;;
4021;SDS011;2025;48.260;16.432;2023-03-23T07:23:01;11.93;;;6.10;;
4021;SDS011;2025;48.260;16.432;2023-03-23T07:25:30;11.25;;;5.65;;
4021;SDS011;2025;48.260;16.432;2023-03-23T07:27:57;11.82;;;6.13;;
4021;SDS011;2025;48.260;16.432;2023-03-23T07:30:25;12.48;;;6.10;;
4021;SDS011;2025;48.260;16.432;2023-03-23T07:32:54;17.17;;;6.07;;
4021;SDS011;2025;48.260;16.432;2023-03-23T07:35:21;12.52;;;5.43;;
4021;SDS011;2025;48.260;16.432;2023-03-23T07:37:50;14.15;;;6.97;;
4021;SDS011;2025;48.260;16.432;2023-03-23T07:40:17;12.82;;;6.72;;
4021;SDS011;2025;48.260;16.432;2023-03-23T07:42:46;16.77;;;6.03;;
4021;SDS011;2025;48.260;16.432;2023-03-23T07:45:17;12.50;;;6.07;;
4021;SDS011;2025;48.260;16.432;2023-03-23T07:47:44;14.63;;;6.53;;
4021;SDS011;2025;48.260;16.432;2023-03-23T07:50:11;13.18;;;6.28;;
4021;SDS011;2025;48.260;16.432;2023-03-23T07:52:39;11.50;;;6.07;;
4021;SDS011;2025;48.260;16.432;2023-03-23T07:55:08;12.70;;;6.78;;
4021;SDS011;2025;48.260;16.432;2023-03-23T07:57:42;14.52;;;6.57;;
4021;SDS011;2025;48.260;16.432;2023-03-23T08:00:10;12.90;;;7.00;;
4021;SDS011;2025;48.260;16.432;2023-03-23T08:02:40;13.55;;;6.28;;
4021;SDS011;2025;48.260;16.432;2023-03-23T08:05:07;15.00;;;8.10;;
4021;SDS011;2025;48.260;16.432;2023-03-23T08:07:35;12.80;;;6.90;;
4021;SDS011;2025;48.260;16.432;2023-03-23T08:10:02;14.38;;;8.07;;
4021;SDS011;2025;48.260;16.432;2023-03-23T08:12:31;13.63;;;6.90;;
4021;SDS011;2025;48.260;16.432;2023-03-23T08:14:58;13.70;;;7.40;;
4021;SDS011;2025;48.260;16.432;2023-03-23T08:17:24;14.43;;;7.32;;
4021;SDS011;2025;48.260;16.432;2023-03-23T08:19:51;17.02;;;7.70;;
4021;SDS011;2025;48.260;16.432;2023-03-23T08:22:18;15.68;;;7.53;;
4021;SDS011;2025;48.260;16.432;2023-03-23T08:24:46;19.98;;;8.50;;
4021;SDS011;2025;48.260;16.432;2023-03-23T08:27:13;14.68;;;7.78;;
4021;SDS011;2025;48.260;16.432;2023-03-23T08:29:42;13.48;;;8.82;;
4021;SDS011;2025;48.260;16.432;2023-03-23T08:32:10;14.48;;;7.72;;
4021;SDS011;2025;48.260;16.432;2023-03-23T08:34:37;13.55;;;7.72;;
4021;SDS011;2025;48.260;16.432;2023-03-23T08:37:04;15.40;;;8.80;;
4021;SDS011;2025;48.260;16.432;2023-03-23T08:39:31;14.77;;;8.88;;
4021;SDS011;2025;48.260;16.432;2023-03-23T08:41:59;14.50;;;9.05;;
4021;SDS011;2025;48.260;16.432;2023-03-23T08:44:26;16.25;;;9.00;;
4021;SDS011;2025;48.260;16.432;2023-03-23T08:46:54;14.75;;;8.60;;
4021;SDS011;2025;48.260;16.432;2023-03-23T08:49:22;13.40;;;8.57;;
4021;SDS011;2025;48.260;16.432;2023-03-23T08:51:49;14.93;;;8.95;;
4021;SDS011;2025;48.260;16.432;2023-03-23T08:54:16;18.35;;;9.00;;
4021;SDS011;2025;48.260;16.432;2023-03-23T08:56:44;15.60;;;9.55;;
4021;SDS011;2025;48.260;16.432;2023-03-23T08:59:11;14.65;;;8.63;;
4021;SDS011;2025;48.260;16.432;2023-03-23T09:01:38;17.85;;;8.98;;
4021;SDS011;2025;48.260;16.432;2023-03-23T09:04:08;16.77;;;8.75;;
4021;SDS011;2025;48.260;16.432;2023-03-23T09:06:35;16.10;;;8.15;;
4021;SDS011;2025;48.260;16.432;2023-03-23T09:09:02;13.15;;;8.10;;
4021;SDS011;2025;48.260;16.432;2023-03-23T09:11:32;17.50;;;7.47;;
4021;SDS011;2025;48.260;16.432;2023-03-23T09:13:59;17.48;;;7.38;;
4021;SDS011;2025;48.260;16.432;2023-03-23T09:16:26;16.75;;;6.90;;
4021;SDS011;2025;48.260;16.432;2023-03-23T09:18:54;11.27;;;7.32;;
4021;SDS011;2025;48.260;16.432;2023-03-23T09:21:23;13.98;;;7.68;;
4021;SDS011;2025;48.260;16.432;2023-03-23T09:23:51;12.23;;;7.35;;
4021;SDS011;2025;48.260;16.432;2023-03-23T09:26:18;16.23;;;7.45;;
4021;SDS011;2025;48.260;16.432;2023-03-23T09:28:45;14.13;;;7.03;;
4021;SDS011;2025;48.260;16.432;2023-03-23T09:31:14;11.25;;;6.63;;
4021;SDS011;2025;48.260;16.432;2023-03-23T09:33:54;11.38;;;6.90;;
4021;SDS011;2025;48.260;16.432;2023-03-23T09:36:32;12.40;;;6.35;;
4021;SDS011;2025;48.260;16.432;2023-03-23T09:38:59;12.60;;;6.50;;
4021;SDS011;2025;48.260;16.432;2023-03-23T09:44:16;11.05;;;5.72;;
4021;SDS011;2025;48.260;16.432;2023-03-23T09:46:55;13.60;;;6.13;;
4021;SDS011;2025;48.260;16.432;2023-03-23T09:49:29;12.23;;;6.88;;
4021;SDS011;2025;48.260;16.432;2023-03-23T09:52:13;12.55;;;6.28;;
4021;SDS011;2025;48.260;16.432;2023-03-23T09:54:42;13.10;;;6.40;;
4021;SDS011;2025;48.260;16.432;2023-03-23T09:57:15;12.80;;;5.97;;
4021;SDS011;2025;48.260;16.432;2023-03-23T09:59:49;12.45;;;6.72;;
4021;SDS011;2025;48.260;16.432;2023-03-23T10:02:21;13.18;;;7.30;;
4021;SDS011;2025;48.260;16.432;2023-03-23T10:04:54;13.88;;;7.55;;
4021;SDS011;2025;48.260;16.432;2023-03-23T10:07:27;13.88;;;6.43;;
4021;SDS011;2025;48.260;16.432;2023-03-23T10:09:55;11.50;;;6.38;;
4021;SDS011;2025;48.260;16.432;2023-03-23T10:12:26;16.08;;;7.97;;
4021;SDS011;2025;48.260;16.432;2023-03-23T10:15:03;12.55;;;5.78;;
4021;SDS011;2025;48.260;16.432;2023-03-23T10:17:37;11.93;;;6.15;;
4021;SDS011;2025;48.260;16.432;2023-03-23T10:23:12;10.90;;;6.18;;
4021;SDS011;2025;48.260;16.432;2023-03-23T10:25:42;12.82;;;6.57;;
4021;SDS011;2025;48.260;16.432;2023-03-23T10:28:15;11.98;;;6.50;;
4021;SDS011;2025;48.260;16.432;2023-03-23T10:30:47;12.93;;;6.30;;
4021;SDS011;2025;48.260;16.432;2023-03-23T10:33:20;14.13;;;5.82;;
4021;SDS011;2025;48.260;16.432;2023-03-23T10:35:53;14.35;;;6.95;;
4021;SDS011;2025;48.260;16.432;2023-03-23T10:38:28;13.98;;;5.63;;
4021;SDS011;2025;48.260;16.432;2023-03-23T10:41:01;14.52;;;6.90;;
4021;SDS011;2025;48.260;16.432;2023-03-23T10:43:36;15.65;;;6.57;;
4021;SDS011;2025;48.260;16.432;2023-03-23T10:46:05;12.45;;;5.25;;
4021;SDS011;2025;48.260;16.432;2023-03-23T10:48:43;10.75;;;5.20;;
4021;SDS011;2025;48.260;16.432;2023-03-23T10:51:13;11.93;;;6.13;;
4021;SDS011;2025;48.260;16.432;2023-03-23T10:53:49;13.70;;;5.72;;
4021;SDS011;2025;48.260;16.432;2023-03-23T10:56:22;13.00;;;6.00;;
4021;SDS011;2025;48.260;16.432;2023-03-23T10:58:50;11.88;;;6.03;;
4021;SDS011;2025;48.260;16.432;2023-03-23T11:01:18;12.23;;;5.82;;
4021;SDS011;2025;48.260;16.432;2023-03-23T11:03:47;13.50;;;5.32;;
4021;SDS011;2025;48.260;16.432;2023-03-23T11:06:19;10.13;;;4.85;;
4021;SDS011;2025;48.260;16.432;2023-03-23T11:08:51;11.45;;;5.13;;
4021;SDS011;2025;48.260;16.432;2023-03-23T11:11:21;10.93;;;5.30;;
4021;SDS011;2025;48.260;16.432;2023-03-23T11:13:56;12.25;;;5.07;;
4021;SDS011;2025;48.260;16.432;2023-03-23T11:16:25;12.30;;;5.13;;
4021;SDS011;2025;48.260;16.432;2023-03-23T11:18:54;12.65;;;5.70;;
4021;SDS011;2025;48.260;16.432;2023-03-23T11:21:22;9.73;;;4.78;;
4021;SDS011;2025;48.260;16.432;2023-03-23T11:23:53;10.77;;;5.47;;
4021;SDS011;2025;48.260;16.432;2023-03-23T11:26:24;10.50;;;6.10;;
4021;SDS011;2025;48.260;16.432;2023-03-23T11:28:54;11.57;;;5.20;;
4021;SDS011;2025;48.260;16.432;2023-03-23T11:31:24;11.27;;;4.43;;
4021;SDS011;2025;48.260;16.432;2023-03-23T11:33:57;9.00;;;4.28;;
4021;SDS011;2025;48.260;16.432;2023-03-23T11:36:29;9.07;;;4.82;;
4021;SDS011;2025;48.260;16.432;2023-03-23T11:38:59;10.52;;;4.13;;
4021;SDS011;2025;48.260;16.432;2023-03-23T11:41:31;9.88;;;4.95;;
4021;SDS011;2025;48.260;16.432;2023-03-23T11:44:02;11.15;;;4.40;;
4021;SDS011;2025;48.260;16.432;2023-03-23T11:46:38;13.25;;;5.55;;
4021;SDS011;2025;48.260;16.432;2023-03-23T11:49:12;9.38;;;4.28;;
4021;SDS011;2025;48.260;16.432;2023-03-23T11:51:47;8.98;;;3.75;;
4021;SDS011;2025;48.260;16.432;2023-03-23T11:54:19;10.48;;;4.50;;
4021;SDS011;2025;48.260;16.432;2023-03-23T11:56:55;10.68;;;3.85;;
4021;SDS011;2025;48.260;16.432;2023-03-23T11:59:27;13.27;;;4.15;;
4021;SDS011;2025;48.260;16.432;2023-03-23T12:01:56;11.07;;;4.05;;
4021;SDS011;2025;48.260;16.432;2023-03-23T12:04:37;9.85;;;4.15;;
4021;SDS011;2025;48.260;16.432;2023-03-23T12:07:23;9.00;;;3.83;;
4021;SDS011;2025;48.260;16.432;2023-03-23T12:10:16;10.13;;;4.57;;
4021;SDS011;2025;48.260;16.432;2023-03-23T12:12:51;12.05;;;4.18;;
4021;SDS011;2025;48.260;16.432;2023-03-23T12:15:30;9.95;;;3.78;;
4021;SDS011;2025;48.260;16.432;2023-03-23T12:18:05;9.90;;;3.40;;
4021;SDS011;2025;48.260;16.432;2023-03-23T12:20:41;10.52;;;3.40;;
4021;SDS011;2025;48.260;16.432;2023-03-23T12:23:28;8.85;;;3.05;;
4021;SDS011;2025;48.260;16.432;2023-03-23T12:31:54;8.20;;;3.38;;
4021;SDS011;2025;48.260;16.432;2023-03-23T12:34:32;10.60;;;3.63;;
4021;SDS011;2025;48.260;16.432;2023-03-23T12:37:10;11.57;;;3.80;;
4021;SDS011;2025;48.260;16.432;2023-03-23T12:39:59;7.32;;;3.15;;
4021;SDS011;2025;48.260;16.432;2023-03-23T12:42:52;9.60;;;2.88;;
4021;SDS011;2025;48.260;16.432;2023-03-23T12:45:37;9.88;;;3.03;;
4021;SDS011;2025;48.260;16.432;2023-03-23T12:48:18;7.85;;;3.55;;
4021;SDS011;2025;48.260;16.432;2023-03-23T12:51:00;10.85;;;2.75;;
4021;SDS011;2025;48.260;16.432;2023-03-23T12:53:40;8.88;;;3.03;;
4021;SDS011;2025;48.260;16.432;2023-03-23T12:56:15;8.32;;;2.72;;
4021;SDS011;2025;48.260;16.432;2023-03-23T12:58:48;8.45;;;3.03;;
4021;SDS011;2025;48.260;16.432;2023-03-23T13:01:22;7.75;;;3.30;;
4021;SDS011;2025;48.260;16.432;2023-03-23T13:03:53;8.52;;;2.47;;
4021;SDS011;2025;48.260;16.432;2023-03-23T13:06:25;9.93;;;2.88;;
4021;SDS011;2025;48.260;16.432;2023-03-23T13:08:59;7.65;;;2.67;;
4021;SDS011;2025;48.260;16.432;2023-03-23T13:11:32;7.25;;;3.03;;
4021;SDS011;2025;48.260;16.432;2023-03-23T13:14:05;7.90;;;1.98;;
4021;SDS011;2025;48.260;16.432;2023-03-23T13:16:43;8.77;;;2.20;;
4021;SDS011;2025;48.260;16.432;2023-03-23T13:19:17;7.47;;;2.45;;
4021;SDS011;2025;48.260;16.432;2023-03-23T13:24:24;9.02;;;3.05;;
4021;SDS011;2025;48.260;16.432;2023-03-23T13:26:55;8.15;;;2.10;;
4021;SDS011;2025;48.260;16.432;2023-03-23T13:29:24;6.38;;;2.35;;
4021;SDS011;2025;48.260;16.432;2023-03-23T13:31:52;8.00;;;2.58;;
4021;SDS011;2025;48.260;16.432;2023-03-23T13:34:32;5.30;;;2.42;;
4021;SDS011;2025;48.260;16.432;2023-03-23T13:37:00;6.70;;;2.88;;
4021;SDS011;2025;48.260;16.432;2023-03-23T13:39:31;10.35;;;2.63;;
4021;SDS011;2025;48.260;16.432;2023-03-23T13:42:05;7.53;;;2.90;;
4021;SDS011;2025;48.260;16.432;2023-03-23T13:44:56;8.15;;;3.17;;
4021;SDS011;2025;48.260;16.432;2023-03-23T13:47:38;8.88;;;3.08;;
4021;SDS011;2025;48.260;16.432;2023-03-23T13:50:11;8.60;;;2.38;;
4021;SDS011;2025;48.260;16.432;2023-03-23T13:52:52;8.05;;;2.40;;
4021;SDS011;2025;48.260;16.432;2023-03-23T13:55:27;6.40;;;2.70;;
4021;SDS011;2025;48.260;16.432;2023-03-23T13:57:57;9.05;;;3.10;;
4021;SDS011;2025;48.260;16.432;2023-03-23T14:00:45;6.03;;;1.83;;
4021;SDS011;2025;48.260;16.432;2023-03-23T14:03:14;5.95;;;2.03;;
4021;SDS011;2025;48.260;16.432;2023-03-23T14:05:45;8.05;;;1.48;;
4021;SDS011;2025;48.260;16.432;2023-03-23T14:08:22;5.70;;;1.40;;
4021;SDS011;2025;48.260;16.432;2023-03-23T14:11:09;12.18;;;2.90;;
4021;SDS011;2025;48.260;16.432;2023-03-23T14:13:41;7.65;;;1.75;;
4021;SDS011;2025;48.260;16.432;2023-03-23T14:16:16;10.43;;;2.05;;
4021;SDS011;2025;48.260;16.432;2023-03-23T14:18:52;6.38;;;2.15;;
4021;SDS011;2025;48.260;16.432;2023-03-23T14:24:06;5.13;;;1.92;;
4021;SDS011;2025;48.260;16.432;2023-03-23T14:29:04;5.65;;;1.58;;
4021;SDS011;2025;48.260;16.432;2023-03-23T14:31:34;6.22;;;2.25;;
4021;SDS011;2025;48.260;16.432;2023-03-23T14:34:04;6.45;;;1.85;;
4021;SDS011;2025;48.260;16.432;2023-03-23T14:36:38;5.10;;;1.55;;
4021;SDS011;2025;48.260;16.432;2023-03-23T14:39:07;5.15;;;1.85;;
4021;SDS011;2025;48.260;16.432;2023-03-23T14:41:43;4.80;;;2.13;;
4021;SDS011;2025;48.260;16.432;2023-03-23T14:44:12;6.00;;;2.15;;
4021;SDS011;2025;48.260;16.432;2023-03-23T14:46:43;7.40;;;2.55;;
4021;SDS011;2025;48.260;16.432;2023-03-23T14:49:13;5.85;;;1.98;;
4021;SDS011;2025;48.260;16.432;2023-03-23T14:51:49;7.88;;;2.13;;
4021;SDS011;2025;48.260;16.432;2023-03-23T14:54:21;4.88;;;1.45;;
4021;SDS011;2025;48.260;16.432;2023-03-23T14:56:49;6.75;;;2.47;;
4021;SDS011;2025;48.260;16.432;2023-03-23T14:59:17;7.38;;;1.85;;
4021;SDS011;2025;48.260;16.432;2023-03-23T15:01:46;4.70;;;1.58;;
4021;SDS011;2025;48.260;16.432;2023-03-23T15:04:16;5.50;;;1.55;;
4021;SDS011;2025;48.260;16.432;2023-03-23T15:06:45;7.00;;;1.98;;
4021;SDS011;2025;48.260;16.432;2023-03-23T15:09:16;6.82;;;2.42;;
4021;SDS011;2025;48.260;16.432;2023-03-23T15:11:56;5.10;;;2.03;;
4021;SDS011;2025;48.260;16.432;2023-03-23T15:14:27;6.07;;;2.10;;
4021;SDS011;2025;48.260;16.432;2023-03-23T15:16:58;6.80;;;2.25;;
4021;SDS011;2025;48.260;16.432;2023-03-23T15:19:27;6.72;;;1.90;;
4021;SDS011;2025;48.260;16.432;2023-03-23T15:22:03;6.45;;;2.28;;
4021;SDS011;2025;48.260;16.432;2023-03-23T15:24:33;5.15;;;1.60;;
4021;SDS011;2025;48.260;16.432;2023-03-23T15:27:03;6.80;;;1.77;;
4021;SDS011;2025;48.260;16.432;2023-03-23T15:29:47;5.28;;;1.48;;
4021;SDS011;2025;48.260;16.432;2023-03-23T15:32:22;6.72;;;1.10;;
4021;SDS011;2025;48.260;16.432;2023-03-23T15:34:51;5.18;;;1.20;;
4021;SDS011;2025;48.260;16.432;2023-03-23T15:37:19;4.75;;;1.10;;
4021;SDS011;2025;48.260;16.432;2023-03-23T15:39:50;4.82;;;1.83;;